createdAt,value
2019-02-28T00:02:30.696Z,22.40
2019-02-28T00:07:34.105Z,19.83
2019-02-28T00:12:37.538Z,18.53
2019-02-28T00:17:43.596Z,18.90
2019-02-28T00:22:49.279Z,23.83
2019-02-28T00:27:52.682Z,23.70
2019-02-28T00:32:59.335Z,26.73
2019-02-28T00:38:01.586Z,26.77
2019-02-28T00:43:05.121Z,25.27
2019-02-28T00:48:08.550Z,25.60
2019-02-28T00:53:11.989Z,30.13
2019-02-28T00:58:15.416Z,30.37
2019-02-28T01:03:18.834Z,28.73
2019-02-28T01:08:22.816Z,29.77
2019-02-28T01:13:28.099Z,26.33
2019-02-28T01:18:34.472Z,23.67
2019-02-28T01:23:36.858Z,31.17
2019-02-28T01:28:40.284Z,31.13
2019-02-28T01:33:43.709Z,28.83
2019-02-28T01:38:47.146Z,28.17
2019-02-28T01:43:50.569Z,32.63
2019-02-28T01:48:54.522Z,36.20
2019-02-28T01:53:58.478Z,30.93
2019-02-28T01:59:01.924Z,34.80
2019-02-28T02:04:05.406Z,26.83
2019-02-28T02:09:11.083Z,37.10
2019-02-28T02:14:13.966Z,38.27
2019-02-28T02:19:18.491Z,33.97
2019-02-28T02:24:24.391Z,38.33
2019-02-28T02:29:27.990Z,41.17
2019-02-28T02:34:31.527Z,43.47
2019-02-28T02:39:34.964Z,39.03
2019-02-28T02:44:38.393Z,42.63
2019-02-28T02:49:41.851Z,49.50
2019-02-28T02:54:45.282Z,40.90
2019-02-28T02:59:48.694Z,44.07
2019-02-28T03:04:57.966Z,38.43
2019-02-28T03:09:57.277Z,42.70
2019-02-28T03:15:00.706Z,40.03
2019-02-28T03:20:07.543Z,44.07
2019-02-28T03:25:13.587Z,47.07
2019-02-28T03:30:27.695Z,40.43
2019-02-28T03:35:24.567Z,55.87
2019-02-28T03:40:27.989Z,46.57
2019-02-28T03:45:35.178Z,45.57
2019-02-28T03:50:36.616Z,44.73
2019-02-28T03:55:41.532Z,47.43
2019-02-28T04:00:45.199Z,50.57
2019-02-28T04:05:48.616Z,51.30
2019-02-28T04:10:54.793Z,47.87
2019-02-28T04:16:08.518Z,49.73
2019-02-28T04:21:02.359Z,54.20
2019-02-28T04:26:05.807Z,50.90
2019-02-28T04:31:09.236Z,50.90
2019-02-28T04:36:12.657Z,51.27
2019-02-28T04:41:16.087Z,48.97
2019-02-28T04:46:19.545Z,47.93
2019-02-28T04:51:22.963Z,43.13
2019-02-28T04:56:26.418Z,48.20
2019-02-28T05:01:29.842Z,51.27
2019-02-28T05:06:33.274Z,43.97
2019-02-28T05:11:36.709Z,47.07
2019-02-28T05:16:40.135Z,51.30
2019-02-28T05:21:43.550Z,49.37
2019-02-28T05:26:46.974Z,56.37
2019-02-28T05:31:50.394Z,53.63
2019-02-28T05:36:53.836Z,49.23
2019-02-28T05:41:57.322Z,56.00
2019-02-28T05:47:00.717Z,55.67
2019-02-28T05:52:04.134Z,66.10
2019-02-28T05:57:08.227Z,63.90
2019-02-28T06:02:12.450Z,56.77
2019-02-28T06:07:15.968Z,62.00
2019-02-28T06:12:19.402Z,60.93
2019-02-28T06:17:23.593Z,59.80
2019-02-28T06:22:27.012Z,75.93
2019-02-28T06:27:30.431Z,74.60
2019-02-28T06:32:33.887Z,77.33
2019-02-28T06:37:38.280Z,75.07
2019-02-28T06:42:43.565Z,65.53
2019-02-28T06:47:49.519Z,69.07
2019-02-28T06:52:52.922Z,80.80
2019-02-28T06:57:58.965Z,80.13
2019-02-28T07:03:03.340Z,81.83
2019-02-28T07:08:06.670Z,75.47
2019-02-28T07:13:11.858Z,69.93
2019-02-28T07:18:18.869Z,65.43
2019-02-28T07:23:22.205Z,61.70
2019-02-28T07:28:25.740Z,63.80
2019-02-28T07:33:29.174Z,64.97
2019-02-28T07:38:32.602Z,52.93
2019-02-28T07:43:36.031Z,53.87
2019-02-28T07:48:39.468Z,60.23
2019-02-28T07:53:42.885Z,68.33
2019-02-28T07:58:46.316Z,76.70
2019-02-28T08:03:49.758Z,76.93
2019-02-28T08:08:53.282Z,79.60
2019-02-28T08:13:56.726Z,69.93
2019-02-28T08:19:00.151Z,85.20
2019-02-28T08:24:05.532Z,69.80
2019-02-28T08:29:11.603Z,73.00
2019-02-28T08:34:14.037Z,78.10
2019-02-28T08:39:17.867Z,75.53
2019-02-28T08:44:23.836Z,70.83
2019-02-28T08:49:26.417Z,65.07
2019-02-28T08:54:29.833Z,73.53
2019-02-28T08:59:33.275Z,76.17
2019-02-28T09:04:41.217Z,66.17
2019-02-28T09:09:41.888Z,73.60
2019-02-28T09:14:45.323Z,67.27
2019-02-28T09:19:48.762Z,71.97
2019-02-28T09:24:52.222Z,65.87
2019-02-28T09:29:55.675Z,69.97
2019-02-28T09:34:59.083Z,65.33
2019-02-28T09:40:02.520Z,70.60
2019-02-28T09:45:09.086Z,72.50
2019-02-28T09:50:15.312Z,68.80
2019-02-28T09:55:18.821Z,62.83
2019-02-28T10:00:23.607Z,64.93
2019-02-28T10:05:27.077Z,75.67
2019-02-28T10:10:32.281Z,65.27
2019-02-28T10:15:38.753Z,72.60
2019-02-28T10:20:41.584Z,70.77
2019-02-28T10:25:45.795Z,77.87
2019-02-28T10:30:50.116Z,71.00
2019-02-28T10:35:54.403Z,67.63
2019-02-28T10:40:57.845Z,75.13
2019-02-28T10:46:01.269Z,65.47
2019-02-28T10:51:12.906Z,66.73
2019-02-28T10:56:10.495Z,67.93
2019-02-28T11:01:14.212Z,73.40
2019-02-28T11:06:17.656Z,67.70
2019-02-28T11:11:21.244Z,64.23
2019-02-28T11:16:24.715Z,62.97
2019-02-28T11:21:29.884Z,71.70
2019-02-28T11:26:34.023Z,77.03
2019-02-28T11:31:37.464Z,68.73
2019-02-28T11:36:40.919Z,70.63
2019-02-28T11:41:44.391Z,60.27
2019-02-28T11:46:47.977Z,68.30
2019-02-28T11:51:53.045Z,73.20
2019-02-28T11:56:56.573Z,62.33
2019-02-28T12:02:00.073Z,66.33
2019-02-28T12:07:03.488Z,68.63
2019-02-28T12:12:07.327Z,65.90
2019-02-28T12:17:12.251Z,59.63
2019-02-28T12:22:15.675Z,67.80
2019-02-28T12:27:19.191Z,67.47
2019-02-28T12:32:22.715Z,71.40
2019-02-28T12:37:26.191Z,71.67
2019-02-28T12:42:31.615Z,70.83
2019-02-28T12:47:34.876Z,76.63
2019-02-28T12:52:38.330Z,69.97
2019-02-28T12:57:41.859Z,63.83
2019-02-28T13:02:47.117Z,69.33
2019-02-28T13:07:50.852Z,62.10
2019-02-28T13:13:05.232Z,67.73
2019-02-28T13:17:59.474Z,75.03
2019-02-28T13:23:02.937Z,67.20
2019-02-28T13:28:07.955Z,60.17
2019-02-28T13:33:14.965Z,65.37
2019-02-28T13:38:19.141Z,74.63
2019-02-28T13:43:22.846Z,69.73
2019-02-28T13:48:32.997Z,60.20
2019-02-28T13:53:31.949Z,60.80
2019-02-28T13:58:35.493Z,62.17
2019-02-28T14:03:42.265Z,56.30
2019-02-28T14:08:46.236Z,58.13
2019-02-28T14:13:49.432Z,59.07
2019-02-28T14:18:54.639Z,52.33
2019-02-28T14:23:59.124Z,51.50
2019-02-28T14:29:02.837Z,56.13
2019-02-28T14:34:06.479Z,53.67
2019-02-28T14:39:11.589Z,56.13
2019-02-28T14:44:15.182Z,56.03
2019-02-28T14:49:20.346Z,52.50
2019-02-28T14:54:24.700Z,59.33
2019-02-28T14:59:31.236Z,55.57
2019-02-28T15:04:34.088Z,63.10
2019-02-28T15:09:37.541Z,51.90
2019-02-28T15:14:43.225Z,56.60
2019-02-28T15:19:46.283Z,65.47
2019-02-28T15:24:49.982Z,64.40
2019-02-28T15:29:55.499Z,63.00
2019-02-28T15:34:58.782Z,56.63
2019-02-28T15:40:02.283Z,64.57
2019-02-28T15:45:07.859Z,67.23
2019-02-28T15:50:16.324Z,59.10
2019-02-28T15:55:19.893Z,70.20
2019-02-28T16:00:25.955Z,66.07
2019-02-28T16:05:29.511Z,84.13
2019-02-28T16:10:35.055Z,69.60
2019-02-28T16:15:38.536Z,70.07
2019-02-28T16:20:41.986Z,69.23
2019-02-28T16:25:46.802Z,62.60
2019-02-28T16:30:50.777Z,67.33
2019-02-28T16:35:54.230Z,77.80
2019-02-28T16:41:00.730Z,79.03
2019-02-28T16:46:02.837Z,75.83
2019-02-28T16:51:06.271Z,78.33
2019-02-28T16:56:09.849Z,75.60
2019-02-28T17:01:13.350Z,82.53
2019-02-28T17:06:16.980Z,75.20
2019-02-28T17:11:20.429Z,74.37
2019-02-28T17:16:25.674Z,64.17
2019-02-28T17:21:29.154Z,72.60
2019-02-28T17:26:42.847Z,58.23
2019-02-28T17:31:49.326Z,57.00
2019-02-28T17:36:52.884Z,48.57
2019-02-28T17:41:56.307Z,60.40
2019-02-28T17:47:29.468Z,45.93
2019-02-28T17:52:41.627Z,47.90
2019-02-28T17:57:48.729Z,63.00
2019-02-28T18:03:17.723Z,52.13
2019-02-28T18:08:37.482Z,51.07
2019-02-28T18:13:55.267Z,56.17
2019-02-28T18:19:21.472Z,55.10
2019-02-28T18:24:34.716Z,62.47
2019-02-28T18:29:58.205Z,54.03
2019-02-28T18:35:01.630Z,58.47
2019-02-28T18:40:07.390Z,54.30
2019-02-28T18:45:12.183Z,56.97
2019-02-28T18:50:15.664Z,47.87
2019-02-28T18:55:19.068Z,50.40
2019-02-28T19:00:23.127Z,55.00
2019-02-28T19:05:27.490Z,56.47
2019-02-28T19:10:30.994Z,49.80
2019-02-28T19:15:34.507Z,66.47
2019-02-28T19:20:37.915Z,49.93
2019-02-28T19:25:41.464Z,52.97
2019-02-28T19:30:44.998Z,53.73
2019-02-28T19:35:48.468Z,52.73
2019-02-28T19:40:51.909Z,50.53
2019-02-28T19:45:56.292Z,40.97
2019-02-28T19:50:59.775Z,45.13
2019-02-28T19:56:03.205Z,39.93
2019-02-28T20:01:06.748Z,39.13
2019-02-28T20:06:10.201Z,33.83
2019-02-28T20:11:13.656Z,32.50
2019-02-28T20:16:17.275Z,28.50
2019-02-28T20:21:20.684Z,29.97
2019-02-28T20:26:24.177Z,29.87
2019-02-28T20:31:27.840Z,33.47
2019-02-28T20:36:31.359Z,23.23
2019-02-28T20:41:34.749Z,24.23
2019-02-28T20:46:38.283Z,30.23
2019-02-28T20:51:41.698Z,30.60
2019-02-28T20:56:45.139Z,23.80
2019-02-28T21:01:48.545Z,24.33
2019-02-28T21:06:51.965Z,28.67
2019-02-28T21:11:55.406Z,21.07
2019-02-28T21:16:59.059Z,23.20
2019-02-28T21:22:02.477Z,23.10
2019-02-28T21:27:06.254Z,16.53
2019-02-28T21:32:09.682Z,27.83
2019-02-28T21:37:13.145Z,19.30
2019-02-28T21:42:16.642Z,25.00
2019-02-28T21:47:20.048Z,21.07
2019-02-28T21:52:23.497Z,26.97
2019-02-28T21:57:26.919Z,24.60
2019-02-28T22:02:30.337Z,21.63
2019-02-28T22:07:33.802Z,27.27
2019-02-28T22:12:37.258Z,26.33
2019-02-28T22:17:40.703Z,28.57
2019-02-28T22:22:44.198Z,24.70
2019-02-28T22:27:47.628Z,27.83
2019-02-28T22:32:52.710Z,22.57
2019-02-28T22:37:56.148Z,22.73
2019-02-28T22:42:59.590Z,21.63
2019-02-28T22:48:03.084Z,26.13
2019-02-28T22:53:06.588Z,25.80
2019-02-28T22:58:13.216Z,24.73
2019-02-28T23:03:16.615Z,27.43
2019-02-28T23:08:20.116Z,19.93
2019-02-28T23:13:23.580Z,24.13
2019-02-28T23:18:27.020Z,19.77
2019-02-28T23:23:30.440Z,24.83
2019-02-28T23:28:36.824Z,25.50
2019-02-28T23:33:40.264Z,28.70
2019-02-28T23:38:43.714Z,29.70
2019-02-28T23:43:47.157Z,24.97
2019-02-28T23:48:50.613Z,30.77
2019-02-28T23:53:54.041Z,27.10
2019-02-28T23:58:57.472Z,26.37
